Time;durP1;ratioP1;P1;durP2;ratioP2;P2;SDS_P1;SDS_P2;PMS_P1;PMS_P2;Temp;Humidity;BMP_temperature;BMP_pressure;BME280_temperature;BME280_humidity;BME280_pressure;Samples;Min_cycle;Max_cycle;Signal;HPM_P1;HPM_P2
2023/02/02 00:01:27;;;;;;;7.80;2.67;;;5.80;81.60;;;8.22;52.79;98154.31;5033481;28;20485;-46
2023/02/02 00:03:55;;;;;;;7.10;2.30;;;5.80;81.70;;;8.24;52.67;98151.53;5033438;28;20082;-49
2023/02/02 00:06:25;;;;;;;7.40;2.10;;;5.80;81.90;;;8.18;52.86;98141.44;5032279;28;20042;-45
2023/02/02 00:08:57;;;;;;;7.63;2.20;;;5.70;81.30;;;8.01;53.15;98150.88;5032322;28;20045;-48
2023/02/02 00:11:25;;;;;;;7.53;3.10;;;5.70;81.70;;;7.91;53.75;98144.66;5032628;28;20500;-48
2023/02/02 00:13:53;;;;;;;5.20;2.10;;;5.70;82.10;;;7.97;53.36;98145.00;5033176;28;20409;-47
2023/02/02 00:16:30;;;;;;;6.43;2.60;;;5.70;82.10;;;7.96;53.31;98145.13;5031251;28;20056;-48
2023/02/02 00:19:08;;;;;;;6.57;2.67;;;5.70;82.00;;;7.81;53.94;98144.63;5033233;28;20042;-48
2023/02/02 00:21:37;;;;;;;8.80;3.10;;;5.70;82.30;;;7.82;54.58;98128.59;5032939;28;20041;-48
2023/02/02 00:24:07;;;;;;;8.47;2.50;;;5.70;83.80;;;7.72;54.60;98153.38;5032806;28;20053;-47
2023/02/02 00:26:36;;;;;;;5.53;2.30;;;5.60;83.50;;;7.91;54.28;98142.00;5032838;28;20050;-48
2023/02/02 00:29:05;;;;;;;6.17;2.37;;;5.70;84.00;;;8.02;53.77;98174.56;5033107;28;20049;-47
2023/02/02 00:31:33;;;;;;;6.20;2.10;;;5.70;83.60;;;8.11;53.67;98154.41;5031405;28;20049;-46
2023/02/02 00:34:01;;;;;;;6.20;2.80;;;5.70;83.60;;;7.93;54.14;98148.88;5031223;28;20060;-49
2023/02/02 00:36:28;;;;;;;9.83;2.43;;;5.70;83.80;;;7.98;53.91;98153.78;5030911;28;20045;-49
2023/02/02 00:38:56;;;;;;;5.80;2.23;;;5.70;83.90;;;7.95;54.30;98146.94;5032118;28;20168;-45
2023/02/02 00:41:24;;;;;;;9.37;2.67;;;5.70;84.30;;;8.18;53.70;98154.69;5032707;28;20409;-47
2023/02/02 00:46:39;;;;;;;4.87;2.03;;;5.70;84.30;;;8.04;54.31;98145.28;5032674;28;20064;-51
2023/02/02 00:49:08;;;;;;;7.47;2.30;;;5.70;84.30;;;7.84;54.69;98134.59;5031647;28;20057;-47
2023/02/02 00:51:36;;;;;;;10.53;4.27;;;5.70;84.60;;;7.60;55.46;98142.84;5032093;28;20052;-47
2023/02/02 00:54:04;;;;;;;6.23;2.30;;;5.60;85.60;;;7.82;55.17;98130.41;5031549;28;20049;-48
2023/02/02 00:56:32;;;;;;;6.03;2.13;;;5.60;86.40;;;7.92;55.20;98139.22;5032496;28;20049;-46
2023/02/02 00:59:00;;;;;;;5.87;2.47;;;5.60;86.60;;;7.85;55.22;98141.59;5032326;28;20053;-44
2023/02/02 01:01:27;;;;;;;6.97;2.93;;;5.60;86.90;;;7.92;55.05;98125.16;5014661;28;20049;-46
2023/02/02 01:03:55;;;;;;;7.20;1.47;;;5.60;87.10;;;7.87;55.01;98134.34;5031146;28;20034;-47
2023/02/02 01:06:23;;;;;;;6.17;1.53;;;5.60;87.30;;;7.44;56.99;98131.84;5032081;28;20045;-45
2023/02/02 01:08:50;;;;;;;5.27;1.87;;;5.50;88.20;;;7.42;56.94;98142.56;5031092;28;20541;-49
2023/02/02 01:11:18;;;;;;;6.33;1.87;;;5.60;89.30;;;7.87;55.56;98165.28;5032419;28;20056;-45
2023/02/02 01:13:46;;;;;;;6.80;2.53;;;5.60;88.70;;;7.87;56.01;98152.91;5032102;28;20485;-45
2023/02/02 01:16:14;;;;;;;8.67;2.60;;;5.60;89.40;;;7.76;56.14;98144.19;5032372;28;20053;-44
2023/02/02 01:18:42;;;;;;;8.27;3.30;;;5.60;90.10;;;7.78;56.62;98139.59;5032056;28;20037;-48
2023/02/02 01:21:11;;;;;;;4.83;2.10;;;5.60;90.70;;;7.87;56.18;98133.47;5013979;28;20060;-45
2023/02/02 01:23:39;;;;;;;9.13;2.20;;;5.60;91.40;;;7.83;56.59;98132.94;5030751;28;20386;-45
2023/02/02 01:26:09;;;;;;;5.67;3.00;;;5.60;92.00;;;8.02;55.89;98136.63;5031004;28;20054;-46
2023/02/02 01:28:38;;;;;;;6.20;2.77;;;5.60;92.50;;;7.79;56.61;98147.41;5031115;28;20045;-46
2023/02/02 01:31:10;;;;;;;5.83;2.27;;;5.50;93.20;;;7.48;57.41;98138.56;5031710;28;20417;-47
2023/02/02 01:33:38;;;;;;;7.00;2.63;;;5.40;94.60;;;7.36;58.05;98131.66;5029900;28;20068;-46
2023/02/02 01:36:15;;;;;;;7.30;2.30;;;5.40;95.70;;;7.10;59.24;98146.09;5031518;28;20049;-48
2023/02/02 01:38:44;;;;;;;8.50;3.37;;;5.30;97.20;;;7.57;57.09;98142.25;5029504;28;20048;-46
2023/02/02 01:41:18;;;;;;;9.17;2.37;;;5.40;96.90;;;7.61;57.07;98141.84;5031595;28;20049;-48
2023/02/02 01:43:45;;;;;;;32.47;4.30;;;5.40;96.90;;;7.62;57.14;98148.84;5023125;28;20045;-47
2023/02/02 01:46:16;;;;;;;11.07;3.07;;;5.40;97.00;;;7.53;57.59;98151.44;5031089;28;20053;-50
2023/02/02 01:49:09;;;;;;;10.50;4.23;;;5.40;97.40;;;7.25;58.83;98151.09;5023681;28;20060;-47
2023/02/02 01:51:59;;;;;;;7.77;2.30;;;5.40;98.20;;;7.41;58.12;98137.41;5029765;28;20049;-45
2023/02/02 01:55:03;;;;;;;10.43;2.83;;;5.40;98.80;;;7.47;57.81;98121.00;5046577;28;20405;-45
2023/02/02 01:57:47;;;;;;;6.33;2.87;;;5.40;99.00;;;7.52;57.84;98141.78;5014261;28;20057;-46
2023/02/02 02:00:24;;;;;;;11.03;2.67;;;5.50;99.10;;;7.58;58.07;98142.13;5030060;28;20045;-47
2023/02/02 02:02:56;;;;;;;10.07;2.77;;;5.50;99.20;;;7.13;59.58;98131.75;5023051;28;20044;-44
2023/02/02 02:05:37;;;;;;;14.77;3.27;;;5.40;99.90;;;7.40;59.17;98139.19;5030161;28;20060;-44
2023/02/02 02:08:19;;;;;;;5.70;2.43;;;5.40;99.90;;;7.54;58.53;98108.06;5013688;28;20053;-48
2023/02/02 02:10:48;;;;;;;7.20;2.75;;;5.40;99.90;;;7.37;59.07;98123.59;5021954;28;20049;-45
2023/02/02 02:13:18;;;;;;;9.43;2.40;;;5.40;99.90;;;7.59;58.67;98122.59;5029806;28;20049;-45
2023/02/02 02:16:18;;;;;;;3.97;2.43;;;5.40;99.90;;;7.47;59.01;98134.25;5030229;28;20046;-46
2023/02/02 02:26:32;;;;;;;4.47;2.43;;;5.40;99.90;;;7.17;59.96;98164.97;5015913;28;20049;-45
2023/02/02 02:26:45;;;;;;;6.73;2.77;;;5.40;99.90;;;7.24;59.74;98142.31;5024898;28;20111;-46
2023/02/02 02:29:53;;;;;;;8.77;2.53;;;5.40;99.90;;;7.59;58.66;98137.66;5026893;28;20068;-46
2023/02/02 02:32:27;;;;;;;8.03;2.70;;;5.40;99.90;;;7.77;58.18;98135.25;5026633;28;20440;-48
2023/02/02 02:35:21;;;;;;;8.93;3.43;;;5.40;99.90;;;7.71;58.57;98130.47;5029813;28;20050;-49
2023/02/02 02:38:04;;;;;;;8.67;2.90;;;5.40;99.90;;;7.55;58.89;98123.84;5009279;28;20072;-46
2023/02/02 02:40:56;;;;;;;9.53;3.23;;;5.40;99.90;;;7.58;58.94;98128.03;5029223;28;20045;-47
2023/02/02 02:43:38;;;;;;;12.80;2.93;;;5.40;99.90;;;7.74;58.17;98132.88;5029391;28;20043;-46
2023/02/02 02:46:07;;;;;;;9.17;3.17;;;5.50;99.90;;;7.75;58.44;98139.84;5031113;28;20042;-45
2023/02/02 02:48:35;;;;;;;8.73;3.10;;;5.50;99.90;;;7.54;58.75;98137.19;5016805;28;20050;-48
2023/02/02 02:51:48;;;;;;;7.97;2.77;;;5.50;99.90;;;7.51;59.55;98169.28;5034790;28;20416;-49
2023/02/02 02:54:36;;;;;;;5.00;1.50;;;5.50;99.90;;;7.24;59.69;98183.84;5030516;28;20054;-48
2023/02/02 02:57:37;;;;;;;4.97;2.30;;;5.40;99.90;;;7.34;59.59;98160.09;5034844;28;20496;-45
2023/02/02 03:00:34;;;;;;;10.50;3.60;;;5.50;99.90;;;7.46;59.42;98165.22;5014569;28;20052;-46
2023/02/02 03:03:40;;;;;;;6.33;2.47;;;5.50;99.90;;;7.79;58.34;98189.81;5028262;28;20049;-46
2023/02/02 03:06:28;;;;;;;6.90;2.40;;;5.50;99.90;;;7.53;59.25;98183.22;5029489;28;20057;-44
2023/02/02 03:09:07;;;;;;;6.17;2.30;;;5.50;99.90;;;7.31;59.75;98171.78;5026438;28;20041;-48
2023/02/02 03:11:35;;;;;;;5.73;2.30;;;5.50;99.90;;;7.25;59.97;98182.84;5033090;28;20042;-44
2023/02/02 03:14:05;;;;;;;3.73;1.90;;;5.50;99.90;;;7.33;60.05;98168.97;5034389;28;20404;-45
2023/02/02 03:16:33;;;;;;;4.83;2.63;;;5.50;99.90;;;7.62;58.74;98163.91;5034295;28;20045;-44
2023/02/02 03:19:01;;;;;;;5.30;2.60;;;5.50;99.90;;;7.43;59.19;98170.75;5034369;28;20420;-44
2023/02/02 03:21:29;;;;;;;8.53;2.70;;;5.50;99.90;;;7.47;59.32;98161.56;5032770;28;20045;-45
2023/02/02 03:23:56;;;;;;;7.03;3.33;;;5.50;99.90;;;7.82;58.49;98178.94;5032948;28;20049;-44
2023/02/02 03:26:25;;;;;;;8.60;2.60;;;5.50;99.90;;;7.81;58.24;98173.78;5034207;28;20417;-45
2023/02/02 03:28:56;;;;;;;6.13;2.23;;;5.60;99.90;;;7.51;59.26;98156.84;5034043;28;20072;-48
2023/02/02 03:31:26;;;;;;;6.73;2.40;;;5.50;99.90;;;7.22;60.11;98173.38;5033832;28;20052;-46
2023/02/02 03:33:55;;;;;;;7.30;3.90;;;5.50;99.90;;;7.46;59.48;98164.34;5032750;28;20052;-46
2023/02/02 03:36:22;;;;;;;5.20;2.63;;;5.50;99.90;;;7.78;58.84;98164.28;5016766;28;20060;-45
2023/02/02 03:38:50;;;;;;;4.97;3.10;;;5.60;99.90;;;7.42;59.68;98190.25;5024367;28;20046;-47
2023/02/02 03:41:18;;;;;;;9.33;2.80;;;5.50;99.90;;;7.61;59.06;98171.00;5033935;28;20038;-44
2023/02/02 03:43:45;;;;;;;4.50;2.40;;;5.60;99.90;;;7.68;58.84;98189.88;5033851;28;20041;-43
2023/02/02 03:46:13;;;;;;;6.80;3.30;;;5.60;99.90;;;7.76;58.39;98168.03;5033770;28;20540;-49
2023/02/02 03:48:41;;;;;;;5.93;2.33;;;5.60;99.90;;;7.81;58.44;98174.63;5033811;28;20088;-45
2023/02/02 03:51:12;;;;;;;7.03;2.70;;;5.60;99.90;;;7.95;57.91;98189.34;5033714;28;20046;-44
2023/02/02 03:53:46;;;;;;;13.60;3.43;;;5.60;99.90;;;7.99;57.78;98174.03;5033621;28;20420;-49
2023/02/02 03:56:14;;;;;;;;;;;5.70;99.90;;;7.53;59.36;98221.16;5034115;28;20049;-50
2023/02/02 03:58:42;;;;;;;7.93;3.20;;;5.60;99.90;;;7.68;58.80;98185.44;5031872;28;19925;-45
2023/02/02 04:01:13;;;;;;;9.87;2.87;;;5.60;99.90;;;7.43;59.58;98178.69;5033449;28;20045;-45
2023/02/02 04:03:41;;;;;;;4.93;2.37;;;5.60;99.90;;;7.66;59.21;98183.88;5033522;28;20292;-49
2023/02/02 04:06:09;;;;;;;9.63;2.93;;;5.60;99.90;;;7.77;58.72;98188.25;5033379;28;20049;-44
2023/02/02 04:08:38;;;;;;;4.47;2.27;;;5.60;99.90;;;7.91;58.32;98210.94;5033342;28;20053;-44
2023/02/02 04:11:09;;;;;;;6.13;2.57;;;5.60;99.90;;;8.04;58.03;98177.09;5033329;28;20053;-44
2023/02/02 04:13:38;;;;;;;8.73;2.90;;;5.60;99.90;;;7.79;58.58;98187.19;5033073;28;20046;-46
2023/02/02 04:16:06;;;;;;;7.63;4.83;;;5.70;99.90;;;7.65;58.93;98179.53;5033083;28;20057;-45
2023/02/02 04:18:33;;;;;;;7.23;2.67;;;5.60;99.90;;;8.05;58.03;98174.31;5033066;28;20045;-45
2023/02/02 04:21:01;;;;;;;6.50;3.33;;;5.70;99.90;;;8.05;57.82;98186.75;5033198;28;20060;-45
2023/02/02 04:23:30;;;;;;;13.70;3.07;;;5.70;99.90;;;7.82;58.29;98194.84;5033087;28;20037;-47
2023/02/02 04:25:58;;;;;;;6.47;2.37;;;5.60;99.90;;;7.43;59.73;98207.84;5033104;28;20057;-44
2023/02/02 04:28:27;;;;;;;6.50;2.90;;;5.60;99.90;;;7.56;59.07;98205.03;5033112;28;20390;-45
2023/02/02 04:30:55;;;;;;;10.90;2.50;;;5.60;99.90;;;7.76;58.75;98202.50;5031721;28;20052;-49
2023/02/02 04:33:25;;;;;;;10.90;2.83;;;5.60;99.90;;;7.73;58.60;98210.69;5032912;28;20049;-44
2023/02/02 04:35:53;;;;;;;6.40;2.37;;;5.60;99.90;;;7.68;58.96;98192.53;5024896;28;20049;-44
2023/02/02 04:38:21;;;;;;;8.77;2.50;;;5.60;99.90;;;8.01;57.97;98204.72;5029952;28;20037;-44
2023/02/02 04:40:48;;;;;;;9.93;3.67;;;5.60;99.90;;;7.97;58.11;98207.75;5031830;28;20497;-47
2023/02/02 04:43:16;;;;;;;4.20;1.97;;;5.70;99.90;;;7.79;58.26;98229.59;5032909;28;20505;-45
2023/02/02 04:45:43;;;;;;;9.37;3.57;;;5.60;99.90;;;7.96;58.02;98222.84;5032766;28;20045;-45
2023/02/02 04:48:11;;;;;;;9.03;4.53;;;5.70;99.90;;;7.96;57.91;98225.50;5032718;28;20053;-47
2023/02/02 04:50:39;;;;;;;5.20;2.70;;;5.70;99.90;;;8.12;57.38;98235.63;5031356;28;20076;-45
2023/02/02 04:53:06;;;;;;;6.07;3.17;;;5.80;99.90;;;8.28;57.15;98219.25;5032576;28;20052;-46
2023/02/02 04:55:37;;;;;;;8.53;2.70;;;5.80;99.90;;;7.94;57.96;98235.38;5032454;28;20041;-51
2023/02/02 04:58:05;;;;;;;10.83;3.67;;;5.70;99.90;;;7.84;58.39;98219.41;5032519;28;20052;-47
2023/02/02 05:00:33;;;;;;;11.97;2.87;;;5.70;99.90;;;7.95;57.97;98233.56;5032534;28;20401;-46
2023/02/02 05:03:00;;;;;;;7.00;3.33;;;5.70;99.90;;;7.72;58.80;98240.84;5032157;28;20050;-45
2023/02/02 05:05:28;;;;;;;7.43;2.40;;;5.70;99.90;;;7.90;58.15;98220.72;5032253;28;20042;-46
2023/02/02 05:07:55;;;;;;;5.93;3.00;;;5.70;99.90;;;7.75;58.47;98232.59;5032355;28;20042;-45
2023/02/02 05:10:23;;;;;;;10.60;3.40;;;5.70;99.90;;;7.77;58.65;98230.66;5031538;28;20045;-45
2023/02/02 05:12:54;;;;;;;9.23;3.00;;;5.70;99.90;;;8.03;57.62;98245.22;5031839;28;20065;-47
2023/02/02 05:15:22;;;;;;;15.40;3.43;;;5.70;99.90;;;8.27;57.08;98225.50;5030824;28;20045;-48
2023/02/02 05:17:50;;;;;;;9.20;2.90;;;5.80;99.90;;;7.80;58.41;98247.16;5032046;28;20041;-47
2023/02/02 05:20:17;;;;;;;6.57;2.67;;;5.70;99.90;;;7.91;58.10;98246.25;5032161;28;20033;-46
2023/02/02 05:22:48;;;;;;;11.03;2.43;;;5.70;99.90;;;8.09;57.50;98236.72;5031619;28;20424;-46
2023/02/02 05:25:17;;;;;;;9.53;3.03;;;5.70;99.90;;;8.16;57.56;98245.03;5032246;28;20049;-44
2023/02/02 05:27:45;;;;;;;8.13;2.97;;;5.70;99.90;;;8.12;57.55;98261.31;5030874;28;20045;-45
2023/02/02 05:30:13;;;;;;;7.93;3.10;;;5.70;99.90;;;8.21;57.25;98249.91;5031973;28;20048;-44
2023/02/02 05:32:41;;;;;;;10.10;2.80;;;5.70;99.90;;;7.91;58.16;98242.75;5030466;28;20440;-44
2023/02/02 05:35:09;;;;;;;10.00;3.07;;;5.70;99.90;;;7.81;58.49;98248.00;5031605;28;20041;-46
2023/02/02 05:37:37;;;;;;;8.83;2.77;;;5.70;99.90;;;7.67;59.10;98249.16;5032107;28;20041;-45
2023/02/02 05:40:05;;;;;;;5.80;2.47;;;5.70;99.90;;;7.29;60.31;98263.78;5031183;28;20053;-46
2023/02/02 05:42:32;;;;;;;3.73;1.97;;;5.50;99.90;;;7.51;59.32;98265.50;5031504;28;20041;-46
2023/02/02 05:45:01;;;;;;;8.33;2.77;;;5.60;99.90;;;7.44;59.85;98269.59;5032012;28;20037;-45
2023/02/02 05:47:28;;;;;;;7.70;3.17;;;5.60;99.90;;;7.45;59.69;98280.06;5031970;28;20053;-46
2023/02/02 05:49:56;;;;;;;9.37;4.23;;;5.60;99.90;;;7.73;58.89;98267.19;5031520;28;20053;-46
2023/02/02 05:52:25;;;;;;;6.03;3.10;;;5.70;99.90;;;7.82;58.86;98279.69;5031288;28;20056;-45
2023/02/02 05:54:52;;;;;;;8.53;2.93;;;5.70;99.90;;;8.13;57.85;98255.03;5031530;28;20041;-45
2023/02/02 05:57:20;;;;;;;6.43;2.40;;;5.80;99.90;;;8.08;58.29;98255.41;5031503;28;20042;-45
2023/02/02 05:59:47;;;;;;;8.33;2.20;;;5.80;99.90;;;7.82;58.87;98261.13;5031034;28;20049;-45
2023/02/02 06:02:15;;;;;;;14.33;3.70;;;5.70;99.90;;;7.75;58.93;98249.34;5031047;28;20037;-48
2023/02/02 06:04:43;;;;;;;6.60;2.63;;;5.60;99.90;;;7.80;58.63;98268.38;5031316;28;20037;-48
2023/02/02 06:07:11;;;;;;;11.13;3.17;;;5.60;99.90;;;7.89;58.50;98249.03;5031432;28;20044;-49
2023/02/02 06:09:39;;;;;;;9.87;2.83;;;5.70;99.90;;;7.76;58.87;98259.00;5029863;28;20038;-45
2023/02/02 06:12:07;;;;;;;7.80;3.43;;;5.60;99.90;;;8.08;57.73;98264.25;5029557;28;20049;-46
2023/02/02 06:14:35;;;;;;;8.17;3.37;;;5.70;99.90;;;7.78;58.73;98272.13;5031061;28;20401;-47
2023/02/02 06:17:02;;;;;;;12.33;2.97;;;5.70;99.90;;;7.82;58.65;98258.47;5031106;28;20058;-47
2023/02/02 06:19:30;;;;;;;11.03;2.90;;;5.70;99.90;;;7.78;58.98;98275.59;5030727;28;20037;-47
2023/02/02 06:21:57;;;;;;;8.80;3.37;;;5.60;99.90;;;7.78;59.15;98277.44;5030634;28;20413;-47
2023/02/02 06:24:25;;;;;;;8.23;4.30;;;5.70;99.90;;;7.92;58.66;98292.16;5031296;28;20496;-46
2023/02/02 06:26:52;;;;;;;7.27;2.17;;;5.70;99.90;;;7.70;59.12;98283.38;5031040;28;20053;-47
2023/02/02 06:29:20;;;;;;;7.30;3.27;;;5.60;99.90;;;7.55;59.70;98276.69;5029168;28;20045;-51
2023/02/02 06:31:48;;;;;;;7.70;2.83;;;5.60;99.90;;;7.55;59.56;98301.38;5030851;28;20049;-47
2023/02/02 06:34:15;;;;;;;8.67;3.40;;;5.60;99.90;;;7.67;59.68;98308.28;5031183;28;20048;-46
2023/02/02 06:36:43;;;;;;;14.73;3.63;;;5.60;99.90;;;7.61;59.79;98286.75;5030816;28;20038;-49
2023/02/02 06:39:11;;;;;;;10.17;3.80;;;5.60;99.90;;;7.97;58.70;98279.34;5030910;28;20044;-47
2023/02/02 06:41:39;;;;;;;7.53;2.80;;;5.60;99.90;;;8.17;58.13;98294.44;5029728;28;20041;-52
2023/02/02 06:44:06;;;;;;;7.70;3.17;;;5.70;99.90;;;8.13;58.21;98289.53;5029660;28;20065;-48
2023/02/02 06:46:34;;;;;;;9.47;3.57;;;5.60;99.90;;;8.22;57.70;98288.72;5030707;28;20048;-53
2023/02/02 06:49:02;;;;;;;8.97;3.17;;;5.70;99.90;;;8.33;57.62;98287.81;5030853;28;20421;-46
2023/02/02 06:51:29;;;;;;;7.77;3.33;;;5.70;99.90;;;8.07;58.24;98297.03;5030613;28;20042;-50
2023/02/02 06:53:57;;;;;;;6.30;2.73;;;5.70;99.90;;;8.02;58.39;98307.16;5030703;28;20045;-49
2023/02/02 06:56:26;;;;;;;6.83;2.90;;;5.70;99.90;;;8.10;57.96;98314.47;5029757;28;20045;-47
2023/02/02 06:58:53;;;;;;;6.60;2.23;;;5.60;99.90;;;8.13;58.06;98322.19;5030569;28;20050;-48
2023/02/02 07:01:21;;;;;;;4.67;2.30;;;5.60;99.90;;;8.15;57.82;98301.69;5030627;28;20401;-45
2023/02/02 07:03:50;;;;;;;12.00;3.93;;;5.60;99.90;;;8.03;58.28;98319.47;5030668;28;20052;-50
2023/02/02 07:06:24;;;;;;;6.30;2.37;;;5.60;99.90;;;8.12;58.00;98306.41;5029584;28;20484;-47
2023/02/02 07:08:53;;;;;;;12.93;3.30;;;5.70;99.90;;;7.91;58.62;98303.72;5030679;28;20133;-47
2023/02/02 07:11:31;;;;;;;9.40;3.40;;;5.70;99.90;;;8.04;58.41;98305.22;5030607;28;20034;-51
2023/02/02 07:14:09;;;;;;;7.53;2.97;;;5.70;99.90;;;8.06;58.33;98295.34;5029414;28;20413;-47
2023/02/02 07:16:37;;;;;;;9.30;3.20;;;5.60;99.90;;;8.14;58.25;98307.09;5030550;28;20030;-46
2023/02/02 07:19:05;;;;;;;9.73;3.00;;;5.70;99.90;;;8.24;57.91;98300.91;5030569;28;20049;-47
2023/02/02 07:21:34;;;;;;;8.27;2.53;;;5.70;99.90;;;8.31;57.70;98305.69;5030416;28;20045;-46
2023/02/02 07:24:04;;;;;;;6.90;3.17;;;5.70;99.90;;;8.47;57.06;98306.94;5030589;28;20496;-44
2023/02/02 07:26:35;;;;;;;6.90;2.93;;;5.70;99.90;;;8.28;57.67;98302.31;5030759;28;20049;-46
2023/02/02 07:29:03;;;;;;;9.03;3.40;;;5.70;99.90;;;8.20;57.85;98301.28;5022297;28;20038;-46
2023/02/02 07:31:31;;;;;;;10.20;3.00;;;5.70;99.90;;;8.21;57.71;98309.09;5030282;28;20424;-45
2023/02/02 07:34:03;;;;;;;9.50;2.90;;;5.70;99.90;;;8.09;58.09;98304.84;5026184;28;20712;-45
2023/02/02 07:36:30;;;;;;;9.43;3.43;;;5.70;99.90;;;8.43;57.33;98313.47;5032783;28;20524;-45
2023/02/02 07:39:00;;;;;;;6.73;3.10;;;5.70;99.90;;;8.39;57.46;98317.31;5030646;28;20092;-46
2023/02/02 07:41:28;;;;;;;12.77;3.97;;;5.80;99.90;;;8.59;56.94;98326.25;5030603;28;20496;-47
2023/02/02 07:43:56;;;;;;;10.47;3.73;;;5.80;99.90;;;8.38;57.56;98310.34;5033772;28;20042;-46
2023/02/02 07:46:25;;;;;;;10.53;3.10;;;5.80;99.90;;;8.39;57.39;98309.34;5034131;28;20056;-45
2023/02/02 07:48:54;;;;;;;10.23;3.67;;;5.80;99.90;;;8.56;56.69;98313.25;5033821;28;20042;-49
2023/02/02 07:51:23;;;;;;;6.97;3.33;;;5.90;99.90;;;8.40;57.12;98313.69;5015863;28;20049;-45
2023/02/02 07:53:53;;;;;;;5.63;3.07;;;5.80;99.90;;;8.50;56.88;98319.09;5015832;28;20045;-45
2023/02/02 07:56:27;;;;;;;6.43;3.10;;;5.90;99.90;;;8.54;56.65;98309.88;5033782;28;20045;-49
2023/02/02 07:58:56;;;;;;;8.68;3.72;;;5.90;99.90;;;8.60;56.68;98317.31;5033631;28;20042;-46
2023/02/02 08:01:25;;;;;;;7.40;3.37;;;5.90;99.90;;;8.64;56.73;98315.25;5033226;28;20507;-47
2023/02/02 08:03:59;;;;;;;12.87;3.23;;;5.90;99.90;;;8.55;56.64;98314.22;5032246;28;20059;-47
2023/02/02 08:06:30;;;;;;;5.15;2.50;;;5.90;99.90;;;8.76;56.13;98311.53;5033266;28;20041;-45
2023/02/02 08:09:00;;;;;;;8.87;2.60;;;6.00;99.90;;;8.79;55.92;98319.22;5033049;28;20049;-50
2023/02/02 08:11:28;;;;;;;12.37;2.50;;;6.10;99.90;;;8.63;56.23;98314.41;5032168;28;20045;-50
2023/02/02 08:13:59;;;;;;;11.23;4.13;;;6.00;99.90;;;8.72;56.01;98323.38;5033324;28;20053;-48
2023/02/02 08:16:29;;;;;;;5.67;2.50;;;6.00;99.90;;;8.55;56.46;98327.50;5032218;28;20056;-45
2023/02/02 08:18:58;;;;;;;4.97;2.23;;;6.00;99.90;;;8.42;56.78;98343.63;5031776;28;20504;-47
2023/02/02 08:21:25;;;;;;;11.07;3.03;;;6.00;99.90;;;8.61;56.27;98350.03;5033030;28;20346;-46
2023/02/02 08:23:53;;;;;;;6.43;3.20;;;6.00;99.90;;;8.80;55.80;98349.25;5033036;28;20049;-45
2023/02/02 08:26:27;;;;;;;6.97;2.87;;;6.10;99.90;;;8.79;55.80;98355.56;5033270;28;20046;-46
2023/02/02 08:28:59;;;;;;;10.53;3.13;;;6.10;99.90;;;8.78;55.75;98375.09;5031830;28;20042;-45
2023/02/02 08:31:37;;;;;;;13.50;3.50;;;6.10;99.90;;;8.57;56.47;98385.75;5031625;28;20049;-45
2023/02/02 08:34:05;;;;;;;8.53;3.20;;;6.00;99.90;;;8.55;56.80;98383.25;5031709;28;20052;-50
2023/02/02 08:36:34;;;;;;;14.20;3.80;;;6.00;99.90;;;8.12;57.99;98391.25;5031663;28;20504;-45
2023/02/02 08:39:05;;;;;;;8.97;3.17;;;5.90;99.90;;;8.34;57.47;98385.84;5031688;28;20052;-45
2023/02/02 08:41:33;;;;;;;6.60;3.50;;;6.00;99.90;;;8.19;58.23;98389.78;5031228;28;20033;-45
2023/02/02 08:44:08;;;;;;;8.00;3.37;;;5.90;99.90;;;8.14;58.16;98397.28;5031212;28;20049;-48
2023/02/02 08:46:38;;;;;;;10.00;4.23;;;5.90;99.90;;;8.11;58.47;98397.56;5031957;28;20037;-45
2023/02/02 08:49:08;;;;;;;10.20;4.00;;;5.90;99.90;;;8.33;57.63;98392.13;5032528;28;20049;-45
2023/02/02 08:51:36;;;;;;;9.13;3.53;;;5.90;99.90;;;8.35;57.90;98398.13;5032395;28;20064;-45
2023/02/02 08:54:03;;;;;;;6.17;3.17;;;5.90;99.90;;;8.46;57.38;98408.72;5032501;28;20041;-47
2023/02/02 08:56:31;;;;;;;9.37;3.70;;;5.90;99.90;;;8.28;58.06;98402.28;5032450;28;20520;-47
2023/02/02 08:58:59;;;;;;;7.03;3.37;;;5.90;99.90;;;8.43;57.51;98408.13;5032011;28;20501;-48
2023/02/02 09:01:29;;;;;;;9.17;3.53;;;6.00;99.90;;;8.28;57.98;98407.59;5032268;28;20045;-45
2023/02/02 09:04:04;;;;;;;10.43;4.43;;;5.90;99.90;;;8.59;57.10;98405.06;5032671;28;20527;-49
2023/02/02 09:06:35;;;;;;;10.43;5.87;;;6.00;99.90;;;8.47;57.27;98396.28;5032455;28;20041;-45
2023/02/02 09:09:05;;;;;;;9.13;3.67;;;6.00;99.90;;;8.41;57.89;98396.78;5032638;28;20050;-48
2023/02/02 09:11:33;;;;;;;10.93;4.17;;;6.00;99.90;;;8.59;57.23;98386.47;5031898;28;20041;-45
2023/02/02 09:14:02;;;;;;;6.83;3.03;;;6.00;99.90;;;8.48;57.58;98406.78;5030715;28;20058;-47
2023/02/02 09:16:30;;;;;;;9.10;4.13;;;6.00;99.90;;;8.41;57.81;98403.00;5032189;28;20493;-46
2023/02/02 09:18:57;;;;;;;12.70;3.57;;;6.00;99.90;;;8.68;57.03;98398.94;5032038;28;20053;-49
2023/02/02 09:21:25;;;;;;;6.97;3.87;;;6.00;99.90;;;8.77;56.77;98427.38;5031875;28;20060;-46
2023/02/02 09:23:53;;;;;;;6.37;3.97;;;6.10;99.90;;;8.67;57.00;98408.72;5031924;28;20045;-47
2023/02/02 09:26:24;;;;;;;7.30;3.77;;;6.10;99.90;;;8.43;57.87;98427.56;5031814;28;20049;-48
2023/02/02 09:29:01;;;;;;;8.40;3.80;;;6.00;99.90;;;8.48;57.68;98433.31;5031908;28;20050;-48
2023/02/02 09:31:32;;;;;;;5.50;3.03;;;6.00;99.90;;;8.26;58.55;98413.03;5031663;28;20048;-47
2023/02/02 09:34:07;;;;;;;8.30;3.23;;;5.90;99.90;;;8.21;58.77;98409.91;5030585;28;20041;-46
2023/02/02 09:36:36;;;;;;;9.97;3.87;;;5.90;99.90;;;8.39;58.29;98412.00;5030486;28;20053;-46
2023/02/02 09:39:05;;;;;;;6.77;3.33;;;6.00;99.90;;;8.31;58.51;98423.25;5033184;28;20497;-50
2023/02/02 09:41:35;;;;;;;12.03;4.17;;;5.90;99.90;;;8.13;59.46;98427.44;5030322;28;20038;-46
2023/02/02 09:44:23;;;;;;;7.10;4.23;;;5.90;99.90;;;7.99;59.88;98441.84;5030385;28;20497;-46
2023/02/02 09:47:35;;;;;;;10.70;4.60;;;5.80;99.90;;;8.16;59.70;98427.16;5031019;28;20409;-49
2023/02/02 09:50:33;;;;;;;8.27;3.23;;;5.80;99.90;;;8.20;59.35;98428.59;5031587;28;20041;-46
2023/02/02 09:53:08;;;;;;;6.37;3.40;;;5.90;99.90;;;8.15;59.64;98431.63;5031049;28;20061;-46
2023/02/02 09:55:45;;;;;;;10.50;4.00;;;5.80;99.90;;;8.17;59.45;98432.34;5031092;28;20400;-49
2023/02/02 09:58:43;;;;;;;13.60;4.50;;;5.80;99.90;;;8.33;59.31;98442.53;5014379;28;20501;-50
2023/02/02 10:01:28;;;;;;;9.17;3.90;;;5.90;99.90;;;8.41;59.10;98456.06;5029934;28;20044;-48
2023/02/02 10:04:20;;;;;;;11.47;3.30;;;5.90;99.90;;;8.17;59.63;98448.28;5030113;28;20044;-45
2023/02/02 10:06:52;;;;;;;7.50;3.50;;;5.90;99.90;;;8.35;59.27;98459.16;5031021;28;20416;-51
2023/02/02 10:09:40;;;;;;;10.00;4.20;;;5.90;99.90;;;8.12;59.44;98449.63;5030159;28;20531;-47
2023/02/02 10:12:55;;;;;;;8.77;3.17;;;5.90;99.90;;;8.00;59.61;98431.09;5029838;28;20056;-47
2023/02/02 10:15:49;;;;;;;8.63;4.45;;;5.90;99.90;;;8.19;59.23;98438.38;5023416;28;20049;-46
2023/02/02 10:18:43;;;;;;;6.82;3.22;;;5.90;99.90;;;8.32;58.43;98445.31;5029779;28;20037;-46
2023/02/02 10:21:17;;;;;;;;;;;5.90;99.90;;;8.60;58.19;98447.38;5030052;28;20037;-49
2023/02/02 10:23:44;;;;;;;7.90;3.10;;;6.00;99.90;;;8.61;57.67;98457.03;5029189;28;19921;-45
2023/02/02 10:26:38;;;;;;;7.47;3.23;;;6.00;99.90;;;8.21;58.78;98444.38;5029362;28;20053;-46
2023/02/02 10:29:22;;;;;;;7.95;3.33;;;6.00;99.90;;;8.25;59.09;98463.56;5029786;28;20045;-47
2023/02/02 10:32:11;;;;;;;11.45;4.55;;;6.00;99.90;;;8.30;58.63;98464.03;5030694;28;20049;-47
2023/02/02 10:34:56;;;;;;;6.27;3.10;;;6.00;99.90;;;8.40;58.48;98445.53;5030998;28;20052;-45
2023/02/02 10:38:08;;;;;;;11.07;3.67;;;6.10;99.90;;;8.26;58.75;98449.34;5012756;28;20571;-47
2023/02/02 10:41:16;;;;;;;5.67;2.93;;;6.00;99.90;;;8.22;59.04;98463.78;5021113;28;20536;-45
2023/02/02 10:44:04;;;;;;;8.33;2.90;;;6.00;99.90;;;8.37;58.63;98454.56;5025724;28;20037;-47
2023/02/02 10:46:54;;;;;;;7.40;3.17;;;6.10;99.90;;;8.65;57.91;98469.06;5025736;28;20033;-47
2023/02/02 10:49:37;;;;;;;8.50;3.53;;;6.20;99.90;;;8.58;58.08;98459.09;5006963;28;20037;-48
2023/02/02 10:52:10;;;;;;;6.00;2.53;;;6.30;99.90;;;8.98;57.27;98467.19;5030484;28;20531;-49
2023/02/02 10:55:08;;;;;;;7.63;2.83;;;6.40;99.90;;;8.99;56.49;98473.34;5031449;28;20707;-48
2023/02/02 10:57:59;;;;;;;8.20;3.90;;;6.50;99.90;;;8.93;56.64;98473.88;5025492;28;20049;-47
2023/02/02 11:00:53;;;;;;;5.73;2.70;;;6.40;99.90;;;8.67;56.94;98466.28;5024351;28;20053;-47
2023/02/02 11:03:41;;;;;;;7.07;2.55;;;6.40;99.90;;;8.60;57.18;98465.94;5023316;28;20040;-45
2023/02/02 11:08:59;;;;;;;6.57;3.27;;;6.50;99.90;;;8.84;56.89;98439.16;5035503;28;20587;-46